sensor_id;sensor_type;location;lat;lon;timestamp;pressure;altitude;pressure_sealevel;temperature;humidity
64841;BME280;51307;52.162;7.560;2023-04-23T00:00:51;100269.53;;;11.51;61.91
64841;BME280;51307;52.162;7.560;2023-04-23T00:03:19;100273.56;;;11.93;60.84
64841;BME280;51307;52.162;7.560;2023-04-23T00:05:51;100278.75;;;12.09;60.48
64841;BME280;51307;52.162;7.560;2023-04-23T00:08:17;100275.34;;;12.16;60.44
64841;BME280;51307;52.162;7.560;2023-04-23T00:10:43;100275.84;;;12.19;59.97
64841;BME280;51307;52.162;7.560;2023-04-23T00:13:09;100268.13;;;12.31;59.63
64841;BME280;51307;52.162;7.560;2023-04-23T00:15:35;100267.03;;;11.72;61.18
64841;BME280;51307;52.162;7.560;2023-04-23T00:18:01;100260.81;;;11.95;60.81
64841;BME280;51307;52.162;7.560;2023-04-23T00:20:26;100270.09;;;12.07;60.10
64841;BME280;51307;52.162;7.560;2023-04-23T00:22:52;100264.97;;;11.74;61.01
64841;BME280;51307;52.162;7.560;2023-04-23T00:25:17;100278.63;;;11.88;60.23
64841;BME280;51307;52.162;7.560;2023-04-23T00:27:43;100278.94;;;12.08;59.82
64841;BME280;51307;52.162;7.560;2023-04-23T00:30:08;100272.78;;;11.61;60.71
64841;BME280;51307;52.162;7.560;2023-04-23T00:32:34;100280.63;;;11.71;60.34
64841;BME280;51307;52.162;7.560;2023-04-23T00:35:00;100280.56;;;11.56;60.29
64841;BME280;51307;52.162;7.560;2023-04-23T00:37:25;100283.88;;;11.58;60.26
64841;BME280;51307;52.162;7.560;2023-04-23T00:39:51;100272.31;;;11.34;60.69
64841;BME280;51307;52.162;7.560;2023-04-23T00:42:16;100272.34;;;11.57;59.97
64841;BME280;51307;52.162;7.560;2023-04-23T00:44:42;100273.69;;;11.30;60.35
64841;BME280;51307;52.162;7.560;2023-04-23T00:47:08;100260.41;;;11.83;59.36
64841;BME280;51307;52.162;7.560;2023-04-23T00:49:35;100263.44;;;11.57;59.80
64841;BME280;51307;52.162;7.560;2023-04-23T00:52:02;100265.44;;;11.40;60.09
64841;BME280;51307;52.162;7.560;2023-04-23T00:54:27;100262.28;;;11.13;60.63
64841;BME280;51307;52.162;7.560;2023-04-23T00:56:54;100260.66;;;11.50;59.95
64841;BME280;51307;52.162;7.560;2023-04-23T00:59:24;100269.13;;;11.16;60.83
64841;BME280;51307;52.162;7.560;2023-04-23T01:01:51;100269.31;;;11.37;60.25
64841;BME280;51307;52.162;7.560;2023-04-23T01:04:18;100273.53;;;11.55;59.72
64841;BME280;51307;52.162;7.560;2023-04-23T01:06:45;100264.28;;;11.11;61.01
64841;BME280;51307;52.162;7.560;2023-04-23T01:09:11;100263.59;;;11.78;59.50
64841;BME280;51307;52.162;7.560;2023-04-23T01:11:39;100267.94;;;11.41;60.30
64841;BME280;51307;52.162;7.560;2023-04-23T01:14:07;100263.81;;;11.54;60.09
64841;BME280;51307;52.162;7.560;2023-04-23T01:16:33;100262.34;;;11.51;60.14
64841;BME280;51307;52.162;7.560;2023-04-23T01:18:59;100267.09;;;11.41;60.14
64841;BME280;51307;52.162;7.560;2023-04-23T01:21:28;100273.69;;;11.76;59.74
64841;BME280;51307;52.162;7.560;2023-04-23T01:23:54;100269.63;;;11.42;60.15
64841;BME280;51307;52.162;7.560;2023-04-23T01:26:21;100280.31;;;11.42;60.59
64841;BME280;51307;52.162;7.560;2023-04-23T01:28:48;100286.84;;;11.63;59.72
64841;BME280;51307;52.162;7.560;2023-04-23T01:31:15;100290.19;;;11.65;59.74
64841;BME280;51307;52.162;7.560;2023-04-23T01:33:42;100290.31;;;11.49;60.03
64841;BME280;51307;52.162;7.560;2023-04-23T01:36:09;100284.28;;;11.70;59.32
64841;BME280;51307;52.162;7.560;2023-04-23T01:38:35;100282.81;;;11.67;59.76
64841;BME280;51307;52.162;7.560;2023-04-23T01:41:02;100286.03;;;11.63;59.88
64841;BME280;51307;52.162;7.560;2023-04-23T01:43:28;100293.03;;;11.64;59.39
64841;BME280;51307;52.162;7.560;2023-04-23T01:45:54;100292.34;;;11.93;58.76
64841;BME280;51307;52.162;7.560;2023-04-23T01:48:19;100286.41;;;11.74;59.42
64841;BME280;51307;52.162;7.560;2023-04-23T01:50:45;100276.19;;;11.78;59.32
64841;BME280;51307;52.162;7.560;2023-04-23T01:53:11;100279.59;;;11.95;58.91
64841;BME280;51307;52.162;7.560;2023-04-23T01:55:37;100280.88;;;11.99;58.99
64841;BME280;51307;52.162;7.560;2023-04-23T01:58:03;100284.22;;;12.01;58.57
64841;BME280;51307;52.162;7.560;2023-04-23T02:00:30;100283.00;;;12.04;58.83
64841;BME280;51307;52.162;7.560;2023-04-23T02:02:55;100286.66;;;12.11;58.32
64841;BME280;51307;52.162;7.560;2023-04-23T02:05:21;100281.59;;;11.93;58.79
64841;BME280;51307;52.162;7.560;2023-04-23T02:07:50;100270.63;;;12.03;58.58
64841;BME280;51307;52.162;7.560;2023-04-23T02:10:16;100267.91;;;11.88;58.79
64841;BME280;51307;52.162;7.560;2023-04-23T02:12:44;100268.13;;;12.01;58.18
64841;BME280;51307;52.162;7.560;2023-04-23T02:15:11;100274.94;;;11.89;58.54
64841;BME280;51307;52.162;7.560;2023-04-23T02:17:37;100272.94;;;11.91;58.72
64841;BME280;51307;52.162;7.560;2023-04-23T02:20:05;100271.84;;;12.15;57.84
64841;BME280;51307;52.162;7.560;2023-04-23T02:22:32;100279.97;;;11.84;58.58
64841;BME280;51307;52.162;7.560;2023-04-23T02:24:57;100278.94;;;12.08;57.98
64841;BME280;51307;52.162;7.560;2023-04-23T02:27:24;100280.25;;;12.12;57.92
64841;BME280;51307;52.162;7.560;2023-04-23T02:29:50;100284.22;;;12.01;57.98
64841;BME280;51307;52.162;7.560;2023-04-23T02:32:16;100285.28;;;11.92;58.31
64841;BME280;51307;52.162;7.560;2023-04-23T02:34:41;100292.72;;;11.67;59.12
64841;BME280;51307;52.162;7.560;2023-04-23T02:37:07;100278.50;;;11.81;58.73
64841;BME280;51307;52.162;7.560;2023-04-23T02:39:32;100280.97;;;11.91;58.47
64841;BME280;51307;52.162;7.560;2023-04-23T02:41:58;100285.53;;;11.82;58.93
64841;BME280;51307;52.162;7.560;2023-04-23T02:44:24;100282.72;;;11.75;58.97
64841;BME280;51307;52.162;7.560;2023-04-23T02:46:50;100282.63;;;12.07;58.06
64841;BME280;51307;52.162;7.560;2023-04-23T02:49:17;100288.53;;;11.87;58.47
64841;BME280;51307;52.162;7.560;2023-04-23T02:51:45;100284.22;;;12.01;58.21
64841;BME280;51307;52.162;7.560;2023-04-23T02:54:12;100286.22;;;11.76;58.71
64841;BME280;51307;52.162;7.560;2023-04-23T02:56:38;100277.28;;;11.84;58.73
64841;BME280;51307;52.162;7.560;2023-04-23T02:59:05;100281.81;;;11.68;58.88
64841;BME280;51307;52.162;7.560;2023-04-23T03:01:31;100291.25;;;11.79;58.89
64841;BME280;51307;52.162;7.560;2023-04-23T03:03:57;100287.16;;;11.68;58.69
64841;BME280;51307;52.162;7.560;2023-04-23T03:06:23;100278.63;;;11.88;58.07
64841;BME280;51307;52.162;7.560;2023-04-23T03:08:48;100286.41;;;11.74;58.44
64841;BME280;51307;52.162;7.560;2023-04-23T03:11:14;100282.41;;;11.55;58.76
64841;BME280;51307;52.162;7.560;2023-04-23T03:13:39;100271.94;;;11.46;59.01
64841;BME280;51307;52.162;7.560;2023-04-23T03:16:05;100270.47;;;11.58;58.74
64841;BME280;51307;52.162;7.560;2023-04-23T03:18:31;100268.09;;;11.63;58.61
64841;BME280;51307;52.162;7.560;2023-04-23T03:20:56;100271.00;;;11.30;59.23
64841;BME280;51307;52.162;7.560;2023-04-23T03:23:22;100269.00;;;11.32;59.20
64841;BME280;51307;52.162;7.560;2023-04-23T03:25:47;100267.63;;;11.59;58.27
64841;BME280;51307;52.162;7.560;2023-04-23T03:28:13;100268.75;;;11.19;59.24
64841;BME280;51307;52.162;7.560;2023-04-23T03:30:38;100269.31;;;11.37;59.03
64841;BME280;51307;52.162;7.560;2023-04-23T03:33:04;100260.16;;;11.32;58.93
64841;BME280;51307;52.162;7.560;2023-04-23T03:35:29;100259.59;;;11.36;58.62
64841;BME280;51307;52.162;7.560;2023-04-23T03:37:55;100265.66;;;11.30;58.75
64841;BME280;51307;52.162;7.560;2023-04-23T03:40:21;100255.31;;;11.04;59.37
64841;BME280;51307;52.162;7.560;2023-04-23T03:42:47;100261.97;;;11.31;58.81
64841;BME280;51307;52.162;7.560;2023-04-23T03:45:13;100256.38;;;11.18;59.20
64841;BME280;51307;52.162;7.560;2023-04-23T03:47:39;100253.25;;;11.06;59.41
64841;BME280;51307;52.162;7.560;2023-04-23T03:50:06;100250.13;;;11.02;59.35
64841;BME280;51307;52.162;7.560;2023-04-23T03:52:32;100241.25;;;11.02;59.14
64841;BME280;51307;52.162;7.560;2023-04-23T03:54:57;100241.09;;;11.03;59.31
64841;BME280;51307;52.162;7.560;2023-04-23T03:57:23;100241.16;;;10.87;59.62
64841;BME280;51307;52.162;7.560;2023-04-23T03:59:48;100237.97;;;10.91;59.52
64841;BME280;51307;52.162;7.560;2023-04-23T04:02:14;100229.59;;;10.94;59.53
64841;BME280;51307;52.162;7.560;2023-04-23T04:04:39;100233.53;;;11.07;59.20
64841;BME280;51307;52.162;7.560;2023-04-23T04:07:07;100236.03;;;11.32;58.69
64841;BME280;51307;52.162;7.560;2023-04-23T04:09:32;100231.38;;;11.02;59.20
64841;BME280;51307;52.162;7.560;2023-04-23T04:11:58;100244.78;;;11.02;59.47
64841;BME280;51307;52.162;7.560;2023-04-23T04:14:23;100239.59;;;11.01;59.39
64841;BME280;51307;52.162;7.560;2023-04-23T04:16:49;100240.84;;;10.90;59.54
64841;BME280;51307;52.162;7.560;2023-04-23T04:19:15;100238.16;;;10.90;59.64
64841;BME280;51307;52.162;7.560;2023-04-23T04:21:40;100242.78;;;10.96;59.18
64841;BME280;51307;52.162;7.560;2023-04-23T04:24:05;100240.84;;;10.90;59.54
64841;BME280;51307;52.162;7.560;2023-04-23T04:26:32;100241.16;;;10.87;59.60
64841;BME280;51307;52.162;7.560;2023-04-23T04:28:59;100241.84;;;10.89;59.61
64841;BME280;51307;52.162;7.560;2023-04-23T04:31:28;100240.84;;;10.82;59.50
64841;BME280;51307;52.162;7.560;2023-04-23T04:33:56;100240.03;;;10.81;59.54
64841;BME280;51307;52.162;7.560;2023-04-23T04:36:22;100236.47;;;10.89;59.15
64841;BME280;51307;52.162;7.560;2023-04-23T04:38:50;100238.72;;;10.77;59.63
64841;BME280;51307;52.162;7.560;2023-04-23T04:41:17;100236.91;;;10.69;59.76
64841;BME280;51307;52.162;7.560;2023-04-23T04:43:44;100232.28;;;10.63;60.20
64841;BME280;51307;52.162;7.560;2023-04-23T04:46:11;100236.72;;;10.71;60.14
64841;BME280;51307;52.162;7.560;2023-04-23T04:48:36;100229.88;;;10.76;59.93
64841;BME280;51307;52.162;7.560;2023-04-23T04:51:02;100240.06;;;11.04;59.64
64841;BME280;51307;52.162;7.560;2023-04-23T04:53:27;100236.63;;;10.96;59.60
64841;BME280;51307;52.162;7.560;2023-04-23T04:55:53;100240.72;;;11.06;59.53
64841;BME280;51307;52.162;7.560;2023-04-23T04:58:18;100242.59;;;10.98;60.03
64841;BME280;51307;52.162;7.560;2023-04-23T05:00:44;100236.13;;;10.92;60.20
64841;BME280;51307;52.162;7.560;2023-04-23T05:03:11;100239.72;;;11.07;60.01
64841;BME280;51307;52.162;7.560;2023-04-23T05:05:36;100243.03;;;10.86;60.50
64841;BME280;51307;52.162;7.560;2023-04-23T05:08:02;100239.34;;;10.87;60.52
64841;BME280;51307;52.162;7.560;2023-04-23T05:10:28;100239.72;;;10.76;60.63
64841;BME280;51307;52.162;7.560;2023-04-23T05:12:56;100233.13;;;10.87;60.28
64841;BME280;51307;52.162;7.560;2023-04-23T05:15:21;100239.59;;;11.24;59.33
64841;BME280;51307;52.162;7.560;2023-04-23T05:17:47;100232.13;;;10.88;60.19
64841;BME280;51307;52.162;7.560;2023-04-23T05:20:14;100230.28;;;10.88;60.35
64841;BME280;51307;52.162;7.560;2023-04-23T05:22:41;100230.88;;;10.75;60.58
64841;BME280;51307;52.162;7.560;2023-04-23T05:25:08;100232.69;;;10.83;60.86
64841;BME280;51307;52.162;7.560;2023-04-23T05:27:34;100244.84;;;10.86;60.68
64841;BME280;51307;52.162;7.560;2023-04-23T05:30:06;100243.63;;;10.97;60.52
64841;BME280;51307;52.162;7.560;2023-04-23T05:32:34;100245.16;;;10.91;60.91
64841;BME280;51307;52.162;7.560;2023-04-23T05:35:01;100238.50;;;10.87;61.15
64841;BME280;51307;52.162;7.560;2023-04-23T05:37:29;100234.25;;;11.01;60.64
64841;BME280;51307;52.162;7.560;2023-04-23T05:39:55;100244.03;;;11.08;60.82
64841;BME280;51307;52.162;7.560;2023-04-23T05:42:22;100242.88;;;11.34;60.08
64841;BME280;51307;52.162;7.560;2023-04-23T05:44:48;100237.88;;;11.08;61.02
64841;BME280;51307;52.162;7.560;2023-04-23T05:47:13;100240.44;;;11.24;60.86
64841;BME280;51307;52.162;7.560;2023-04-23T05:49:39;100244.28;;;11.22;60.81
64841;BME280;51307;52.162;7.560;2023-04-23T05:52:05;100240.97;;;10.97;61.40
64841;BME280;51307;52.162;7.560;2023-04-23T05:54:33;100239.13;;;11.20;60.90
64841;BME280;51307;52.162;7.560;2023-04-23T05:56:58;100240.25;;;11.26;60.86
64841;BME280;51307;52.162;7.560;2023-04-23T05:59:24;100243.16;;;11.16;61.23
64841;BME280;51307;52.162;7.560;2023-04-23T06:01:49;100241.97;;;11.42;60.84
64841;BME280;51307;52.162;7.560;2023-04-23T06:04:15;100238.00;;;11.38;60.89
64841;BME280;51307;52.162;7.560;2023-04-23T06:06:42;100239.13;;;11.20;61.80
64841;BME280;51307;52.162;7.560;2023-04-23T06:09:07;100235.75;;;11.26;61.48
64841;BME280;51307;52.162;7.560;2023-04-23T06:11:33;100228.41;;;11.43;61.00
64841;BME280;51307;52.162;7.560;2023-04-23T06:14:03;100237.63;;;11.41;60.83
64841;BME280;51307;52.162;7.560;2023-04-23T06:16:29;100229.84;;;11.31;61.26
64841;BME280;51307;52.162;7.560;2023-04-23T06:18:54;100217.81;;;11.27;61.91
64841;BME280;51307;52.162;7.560;2023-04-23T06:21:21;100223.41;;;11.40;61.46
64841;BME280;51307;52.162;7.560;2023-04-23T06:23:47;100215.31;;;11.49;61.52
64841;BME280;51307;52.162;7.560;2023-04-23T06:26:12;100209.84;;;11.80;60.43
64841;BME280;51307;52.162;7.560;2023-04-23T06:28:38;100209.47;;;11.83;60.62
64841;BME280;51307;52.162;7.560;2023-04-23T06:31:04;100211.13;;;11.69;60.96
64841;BME280;51307;52.162;7.560;2023-04-23T06:33:30;100206.25;;;11.88;60.65
64841;BME280;51307;52.162;7.560;2023-04-23T06:35:55;100203.41;;;11.66;61.89
64841;BME280;51307;52.162;7.560;2023-04-23T06:38:21;100191.50;;;11.69;61.85
64841;BME280;51307;52.162;7.560;2023-04-23T06:40:47;100194.03;;;11.85;61.38
64841;BME280;51307;52.162;7.560;2023-04-23T06:43:13;100190.69;;;11.83;61.78
64841;BME280;51307;52.162;7.560;2023-04-23T06:45:39;100187.34;;;12.04;61.16
64841;BME280;51307;52.162;7.560;2023-04-23T06:48:04;100185.09;;;11.93;61.27
64841;BME280;51307;52.162;7.560;2023-04-23T06:50:30;100186.69;;;12.02;61.27
64841;BME280;51307;52.162;7.560;2023-04-23T06:52:55;100186.19;;;12.14;61.37
64841;BME280;51307;52.162;7.560;2023-04-23T06:55:21;100188.34;;;12.18;61.21
64841;BME280;51307;52.162;7.560;2023-04-23T06:57:53;100190.00;;;12.34;60.15
64841;BME280;51307;52.162;7.560;2023-04-23T07:00:19;100188.81;;;12.22;59.82
64841;BME280;51307;52.162;7.560;2023-04-23T07:02:44;100191.75;;;12.27;59.91
64841;BME280;51307;52.162;7.560;2023-04-23T07:05:11;100193.03;;;12.16;59.66
64841;BME280;51307;52.162;7.560;2023-04-23T07:07:36;100182.59;;;12.21;60.29
64841;BME280;51307;52.162;7.560;2023-04-23T07:10:03;100189.13;;;12.49;59.95
64841;BME280;51307;52.162;7.560;2023-04-23T07:12:29;100183.09;;;12.61;59.92
64841;BME280;51307;52.162;7.560;2023-04-23T07:14:55;100188.72;;;12.67;59.87
64841;BME280;51307;52.162;7.560;2023-04-23T07:17:21;100182.03;;;12.77;59.30
64841;BME280;51307;52.162;7.560;2023-04-23T07:19:46;100177.94;;;12.82;59.40
64841;BME280;51307;52.162;7.560;2023-04-23T07:22:12;100173.84;;;12.86;58.16
64841;BME280;51307;52.162;7.560;2023-04-23T07:24:37;100173.16;;;12.77;58.08
64841;BME280;51307;52.162;7.560;2023-04-23T07:27:03;100171.19;;;12.86;58.20
64841;BME280;51307;52.162;7.560;2023-04-23T07:29:29;100164.47;;;12.97;58.40
64841;BME280;51307;52.162;7.560;2023-04-23T07:31:54;100160.25;;;13.09;57.75
64841;BME280;51307;52.162;7.560;2023-04-23T07:34:20;100168.09;;;13.10;58.03
64841;BME280;51307;52.162;7.560;2023-04-23T07:36:46;100172.78;;;13.02;57.76
64841;BME280;51307;52.162;7.560;2023-04-23T07:39:11;100168.19;;;13.17;57.80
64841;BME280;51307;52.162;7.560;2023-04-23T07:41:37;100159.03;;;13.11;57.79
64841;BME280;51307;52.162;7.560;2023-04-23T07:44:03;100162.66;;;13.04;57.50
64841;BME280;51307;52.162;7.560;2023-04-23T07:46:28;100167.56;;;13.15;57.64
64841;BME280;51307;52.162;7.560;2023-04-23T07:48:54;100170.47;;;13.14;57.19
64841;BME280;51307;52.162;7.560;2023-04-23T07:51:20;100161.72;;;13.11;57.42
64841;BME280;51307;52.162;7.560;2023-04-23T07:53:47;100158.00;;;13.12;57.17
64841;BME280;51307;52.162;7.560;2023-04-23T07:56:16;100155.66;;;13.03;57.59
64841;BME280;51307;52.162;7.560;2023-04-23T07:58:41;100155.31;;;13.12;57.35
64841;BME280;51307;52.162;7.560;2023-04-23T08:01:07;100156.22;;;13.20;57.18
64841;BME280;51307;52.162;7.560;2023-04-23T08:03:32;100150.09;;;13.04;57.54
64841;BME280;51307;52.162;7.560;2023-04-23T08:05:58;100157.03;;;13.14;57.65
64841;BME280;51307;52.162;7.560;2023-04-23T08:08:23;100156.34;;;13.11;56.95
64841;BME280;51307;52.162;7.560;2023-04-23T08:10:49;100146.97;;;13.22;56.88
64841;BME280;51307;52.162;7.560;2023-04-23T08:13:14;100150.91;;;13.26;57.00
64841;BME280;51307;52.162;7.560;2023-04-23T08:15:40;100138.97;;;13.29;57.42
64841;BME280;51307;52.162;7.560;2023-04-23T08:18:05;100138.34;;;13.27;57.18
64841;BME280;51307;52.162;7.560;2023-04-23T08:20:31;100139.22;;;13.34;57.30
64841;BME280;51307;52.162;7.560;2023-04-23T08:22:57;100146.63;;;13.32;57.33
64841;BME280;51307;52.162;7.560;2023-04-23T08:25:22;100139.03;;;13.14;57.17
64841;BME280;51307;52.162;7.560;2023-04-23T08:27:48;100140.22;;;13.33;56.66
64841;BME280;51307;52.162;7.560;2023-04-23T08:30:14;100140.97;;;13.49;57.09
64841;BME280;51307;52.162;7.560;2023-04-23T08:32:39;100132.38;;;13.60;57.03
64841;BME280;51307;52.162;7.560;2023-04-23T08:35:06;100133.69;;;13.71;57.01
64841;BME280;51307;52.162;7.560;2023-04-23T08:37:32;100139.06;;;13.42;56.98
64841;BME280;51307;52.162;7.560;2023-04-23T08:39:59;100127.88;;;13.67;56.53
64841;BME280;51307;52.162;7.560;2023-04-23T08:44:50;100121.25;;;13.70;56.25
64841;BME280;51307;52.162;7.560;2023-04-23T08:47:17;100126.34;;;13.86;55.84
64841;BME280;51307;52.162;7.560;2023-04-23T08:49:45;100117.88;;;13.89;56.15
64841;BME280;51307;52.162;7.560;2023-04-23T08:52:16;100118.91;;;13.95;56.28
64841;BME280;51307;52.162;7.560;2023-04-23T08:54:49;100128.69;;;14.03;56.26
64841;BME280;51307;52.162;7.560;2023-04-23T08:57:17;100134.56;;;13.78;55.72
64841;BME280;51307;52.162;7.560;2023-04-23T08:59:44;100132.19;;;14.03;55.25
64841;BME280;51307;52.162;7.560;2023-04-23T09:02:10;100140.97;;;14.19;55.38
64841;BME280;51307;52.162;7.560;2023-04-23T09:04:36;100132.63;;;14.07;55.40
64841;BME280;51307;52.162;7.560;2023-04-23T09:07:03;100133.47;;;14.07;54.75
64841;BME280;51307;52.162;7.560;2023-04-23T09:09:38;100123.59;;;14.21;54.30
64841;BME280;51307;52.162;7.560;2023-04-23T09:12:06;100115.78;;;14.26;54.65
64841;BME280;51307;52.162;7.560;2023-04-23T09:14:33;100120.88;;;14.15;54.58
64841;BME280;51307;52.162;7.560;2023-04-23T09:17:03;100122.03;;;14.34;54.84
64841;BME280;51307;52.162;7.560;2023-04-23T09:19:28;100123.47;;;14.36;54.84
64841;BME280;51307;52.162;7.560;2023-04-23T09:21:56;100124.34;;;14.50;54.47
64841;BME280;51307;52.162;7.560;2023-04-23T09:24:22;100117.13;;;14.64;54.76
64841;BME280;51307;52.162;7.560;2023-04-23T09:26:49;100114.06;;;14.74;54.05
64841;BME280;51307;52.162;7.560;2023-04-23T09:29:17;100114.59;;;14.42;53.76
64841;BME280;51307;52.162;7.560;2023-04-23T09:31:50;100113.84;;;14.69;54.23
64841;BME280;51307;52.162;7.560;2023-04-23T09:34:22;100108.03;;;14.78;54.06
64841;BME280;51307;52.162;7.560;2023-04-23T09:36:49;100106.41;;;14.91;53.50
64841;BME280;51307;52.162;7.560;2023-04-23T09:39:17;100106.00;;;14.87;53.02
64841;BME280;51307;52.162;7.560;2023-04-23T09:41:44;100104.34;;;15.06;53.39
64841;BME280;51307;52.162;7.560;2023-04-23T09:44:17;100100.19;;;15.10;53.04
64841;BME280;51307;52.162;7.560;2023-04-23T09:46:45;100103.94;;;15.09;52.78
64841;BME280;51307;52.162;7.560;2023-04-23T09:49:13;100097.72;;;15.29;51.89
64841;BME280;51307;52.162;7.560;2023-04-23T09:51:46;100096.06;;;15.28;51.49
64841;BME280;51307;52.162;7.560;2023-04-23T09:54:22;100098.78;;;15.41;51.73
64841;BME280;51307;52.162;7.560;2023-04-23T09:56:53;100089.00;;;15.20;51.22
64841;BME280;51307;52.162;7.560;2023-04-23T09:59:27;100101.44;;;15.35;51.27
64841;BME280;51307;52.162;7.560;2023-04-23T10:01:53;100095.44;;;15.39;50.82
64841;BME280;51307;52.162;7.560;2023-04-23T10:04:21;100091.25;;;15.57;50.51
64841;BME280;51307;52.162;7.560;2023-04-23T10:06:55;100092.72;;;15.59;50.76
64841;BME280;51307;52.162;7.560;2023-04-23T10:09:21;100092.72;;;15.59;50.62
64841;BME280;51307;52.162;7.560;2023-04-23T10:12:01;100095.16;;;15.74;50.61
64841;BME280;51307;52.162;7.560;2023-04-23T10:14:27;100086.22;;;15.80;51.07
64841;BME280;51307;52.162;7.560;2023-04-23T10:16:57;100088.72;;;15.82;50.92
64841;BME280;51307;52.162;7.560;2023-04-23T10:19:24;100096.16;;;15.93;50.29
64841;BME280;51307;52.162;7.560;2023-04-23T10:22:03;100100.53;;;15.88;50.21
64841;BME280;51307;52.162;7.560;2023-04-23T10:24:34;100091.22;;;15.77;49.47
64841;BME280;51307;52.162;7.560;2023-04-23T10:27:03;100091.44;;;15.75;49.62
64841;BME280;51307;52.162;7.560;2023-04-23T10:29:31;100091.81;;;15.86;49.50
64841;BME280;51307;52.162;7.560;2023-04-23T10:32:01;100085.19;;;15.82;49.20
64841;BME280;51307;52.162;7.560;2023-04-23T10:34:29;100085.16;;;15.95;49.06
64841;BME280;51307;52.162;7.560;2023-04-23T10:36:56;100085.47;;;15.60;48.36
64841;BME280;51307;52.162;7.560;2023-04-23T10:39:26;100081.63;;;15.88;48.38
64841;BME280;51307;52.162;7.560;2023-04-23T10:41:53;100083.50;;;15.94;48.30
64841;BME280;51307;52.162;7.560;2023-04-23T10:44:20;100080.66;;;15.75;47.30
64841;BME280;51307;52.162;7.560;2023-04-23T10:46:56;100074.69;;;15.53;47.36
64841;BME280;51307;52.162;7.560;2023-04-23T10:49:23;100080.22;;;15.78;46.86
64841;BME280;51307;52.162;7.560;2023-04-23T10:52:02;100078.59;;;15.71;47.35
64841;BME280;51307;52.162;7.560;2023-04-23T10:54:30;100072.13;;;15.78;47.33
64841;BME280;51307;52.162;7.560;2023-04-23T10:57:04;100069.22;;;15.87;47.65
64841;BME280;51307;52.162;7.560;2023-04-23T10:59:54;100069.81;;;15.89;47.96
64841;BME280;51307;52.162;7.560;2023-04-23T11:02:22;100072.75;;;15.80;47.42
64841;BME280;51307;52.162;7.560;2023-04-23T11:04:57;100067.13;;;15.89;47.35
64841;BME280;51307;52.162;7.560;2023-04-23T11:07:32;100067.06;;;16.02;47.16
64841;BME280;51307;52.162;7.560;2023-04-23T11:09:59;100067.22;;;16.14;46.63
64841;BME280;51307;52.162;7.560;2023-04-23T11:14:55;100061.59;;;16.16;45.66
64841;BME280;51307;52.162;7.560;2023-04-23T11:17:23;100057.66;;;16.18;45.59
64841;BME280;51307;52.162;7.560;2023-04-23T11:20:13;100057.53;;;16.38;47.08
64841;BME280;51307;52.162;7.560;2023-04-23T11:22:42;100046.16;;;16.29;44.13
64841;BME280;51307;52.162;7.560;2023-04-23T11:25:11;100051.81;;;16.21;43.71
64841;BME280;51307;52.162;7.560;2023-04-23T11:27:41;100046.81;;;16.25;43.91
64841;BME280;51307;52.162;7.560;2023-04-23T11:30:28;100040.03;;;16.54;44.39
64841;BME280;51307;52.162;7.560;2023-04-23T11:32:56;100041.88;;;16.22;43.61
64841;BME280;51307;52.162;7.560;2023-04-23T11:35:23;100041.50;;;16.50;43.75
64841;BME280;51307;52.162;7.560;2023-04-23T11:37:52;100033.00;;;16.46;43.66
64841;BME280;51307;52.162;7.560;2023-04-23T11:40:18;100033.19;;;16.52;43.66
64841;BME280;51307;52.162;7.560;2023-04-23T11:42:50;100023.50;;;16.69;43.79
64841;BME280;51307;52.162;7.560;2023-04-23T11:47:45;100016.09;;;16.58;42.35
64841;BME280;51307;52.162;7.560;2023-04-23T11:52:48;100003.38;;;16.65;41.92
64841;BME280;51307;52.162;7.560;2023-04-23T11:55:14;100003.50;;;16.77;41.72
64841;BME280;51307;52.162;7.560;2023-04-23T11:57:46;100000.81;;;16.95;42.50
64841;BME280;51307;52.162;7.560;2023-04-23T12:03:00;99996.16;;;16.84;42.67
64841;BME280;51307;52.162;7.560;2023-04-23T12:05:27;99990.69;;;16.91;41.79
64841;BME280;51307;52.162;7.560;2023-04-23T12:07:53;99997.59;;;16.87;42.23
64841;BME280;51307;52.162;7.560;2023-04-23T12:10:20;99997.84;;;17.04;41.75
64841;BME280;51307;52.162;7.560;2023-04-23T12:12:50;99994.28;;;16.85;41.23
64841;BME280;51307;52.162;7.560;2023-04-23T12:15:16;99988.97;;;16.96;41.54
64841;BME280;51307;52.162;7.560;2023-04-23T12:17:41;99971.09;;;16.95;41.88
64841;BME280;51307;52.162;7.560;2023-04-23T12:20:14;99973.03;;;17.13;41.51
64841;BME280;51307;52.162;7.560;2023-04-23T12:22:40;99974.81;;;17.01;40.66
64841;BME280;51307;52.162;7.560;2023-04-23T12:25:06;99970.63;;;17.05;40.59
64841;BME280;51307;52.162;7.560;2023-04-23T12:27:39;99963.72;;;17.09;41.00
64841;BME280;51307;52.162;7.560;2023-04-23T12:30:06;99959.88;;;16.99;40.48
64841;BME280;51307;52.162;7.560;2023-04-23T12:32:33;99964.63;;;16.78;40.69
64841;BME280;51307;52.162;7.560;2023-04-23T12:34:58;99961.63;;;16.86;40.86
64841;BME280;51307;52.162;7.560;2023-04-23T12:37:28;99949.13;;;16.92;41.06
64841;BME280;51307;52.162;7.560;2023-04-23T12:39:55;99956.00;;;16.69;40.82
64841;BME280;51307;52.162;7.560;2023-04-23T12:42:24;99955.03;;;16.82;40.97
64841;BME280;51307;52.162;7.560;2023-04-23T12:44:50;99955.19;;;16.62;41.33
64841;BME280;51307;52.162;7.560;2023-04-23T12:47:16;99945.13;;;16.76;41.72
64841;BME280;51307;52.162;7.560;2023-04-23T12:49:45;99948.38;;;17.03;41.53
64841;BME280;51307;52.162;7.560;2023-04-23T12:52:11;99950.78;;;17.11;41.94
64841;BME280;51307;52.162;7.560;2023-04-23T12:54:40;99944.03;;;17.02;41.96
64841;BME280;51307;52.162;7.560;2023-04-23T12:57:09;99939.94;;;16.93;41.69
64841;BME280;51307;52.162;7.560;2023-04-23T12:59:35;99929.41;;;17.10;41.37
64841;BME280;51307;52.162;7.560;2023-04-23T13:02:00;99930.53;;;17.21;41.60